createdAt,value
2018-10-16T00:02:02.917Z,14.63
2018-10-16T00:04:31.460Z,16.63
2018-10-16T00:07:00.163Z,16.30
2018-10-16T00:09:28.709Z,15.87
2018-10-16T00:12:02.435Z,17.17
2018-10-16T00:14:31.392Z,16.70
2018-10-16T00:17:01.345Z,18.57
2018-10-16T00:19:29.888Z,17.60
2018-10-16T00:21:59.013Z,16.23
2018-10-16T00:24:27.530Z,17.43
2018-10-16T00:26:56.046Z,21.67
2018-10-16T00:29:24.564Z,21.87
2018-10-16T00:31:53.056Z,17.37
2018-10-16T00:34:21.585Z,17.63
2018-10-16T00:36:50.129Z,23.30
2018-10-16T00:39:18.653Z,17.87
2018-10-16T00:41:53.272Z,19.57
2018-10-16T00:44:21.933Z,18.97
2018-10-16T00:46:50.582Z,15.73
2018-10-16T00:49:19.134Z,16.27
2018-10-16T00:51:47.690Z,16.43
2018-10-16T00:54:16.201Z,16.77
2018-10-16T00:56:44.734Z,17.23
2018-10-16T00:59:13.227Z,18.10
2018-10-16T01:01:41.848Z,16.50
2018-10-16T01:04:10.359Z,16.17
2018-10-16T01:06:39.191Z,15.87
2018-10-16T01:09:09.728Z,16.27
2018-10-16T01:11:38.768Z,16.97
2018-10-16T01:14:07.308Z,15.47
2018-10-16T01:16:35.827Z,15.80
2018-10-16T01:19:04.365Z,17.80
2018-10-16T01:21:32.899Z,17.80
2018-10-16T01:24:01.398Z,18.30
2018-10-16T01:26:29.929Z,17.93
2018-10-16T01:28:58.460Z,17.00
2018-10-16T01:31:27.114Z,17.57
2018-10-16T01:33:55.643Z,17.47
2018-10-16T01:36:24.189Z,17.33
2018-10-16T01:38:52.744Z,16.87
2018-10-16T01:41:21.275Z,17.80
2018-10-16T01:43:49.778Z,17.63
2018-10-16T01:46:18.285Z,16.97
2018-10-16T01:48:47.500Z,18.80
2018-10-16T01:51:16.720Z,19.50
2018-10-16T01:53:45.308Z,17.37
2018-10-16T01:56:13.810Z,20.23
2018-10-16T01:58:42.304Z,19.17
2018-10-16T02:01:10.827Z,22.33
2018-10-16T02:03:39.370Z,20.27
2018-10-16T02:06:07.884Z,20.77
2018-10-16T02:08:36.437Z,20.93
2018-10-16T02:11:05.151Z,20.23
2018-10-16T02:13:33.702Z,24.30
2018-10-16T02:16:02.324Z,23.03
2018-10-16T02:18:30.837Z,23.73
2018-10-16T02:20:59.387Z,26.57
2018-10-16T02:23:27.927Z,25.23
2018-10-16T02:25:56.452Z,29.37
2018-10-16T02:28:24.981Z,28.13
2018-10-16T02:30:53.480Z,24.60
2018-10-16T02:33:22.015Z,24.27
2018-10-16T02:35:50.587Z,23.43
2018-10-16T02:38:19.112Z,22.27
2018-10-16T02:40:47.639Z,24.67
2018-10-16T02:43:16.177Z,26.27
2018-10-16T02:45:44.860Z,23.80
2018-10-16T02:48:13.363Z,21.13
2018-10-16T02:50:41.959Z,25.00
2018-10-16T02:53:10.548Z,20.10
2018-10-16T02:55:39.069Z,24.30
2018-10-16T02:58:07.527Z,25.13
2018-10-16T03:00:36.053Z,21.60
2018-10-16T03:03:04.678Z,21.97
2018-10-16T03:05:33.195Z,25.97
2018-10-16T03:08:01.765Z,23.23
2018-10-16T03:10:30.363Z,22.47
2018-10-16T03:12:58.960Z,19.10
2018-10-16T03:15:27.469Z,20.07
2018-10-16T03:17:56.027Z,21.07
2018-10-16T03:20:24.561Z,20.90
2018-10-16T03:22:53.106Z,21.93
2018-10-16T03:25:21.617Z,26.73
2018-10-16T03:27:50.136Z,23.37
2018-10-16T03:30:18.706Z,22.53
2018-10-16T03:32:47.268Z,26.27
2018-10-16T03:35:15.797Z,22.97
2018-10-16T03:37:44.505Z,25.77
2018-10-16T03:40:13.419Z,28.07
2018-10-16T03:42:42.674Z,24.40
2018-10-16T03:45:12.421Z,29.40
2018-10-16T03:47:41.482Z,28.13
2018-10-16T03:50:10.614Z,23.40
2018-10-16T03:52:39.131Z,22.83
2018-10-16T03:55:08.117Z,23.37
2018-10-16T03:57:36.944Z,23.20
2018-10-16T04:00:06.266Z,24.13
2018-10-16T04:02:34.822Z,25.70
2018-10-16T04:05:03.378Z,23.83
2018-10-16T04:07:32.122Z,25.30
2018-10-16T04:10:00.805Z,27.40
2018-10-16T04:12:29.331Z,28.83
2018-10-16T04:14:57.878Z,27.17
2018-10-16T04:17:26.673Z,28.87
2018-10-16T04:19:55.207Z,25.53
2018-10-16T04:22:23.834Z,25.53
2018-10-16T04:24:52.308Z,24.07
2018-10-16T04:27:20.851Z,25.90
2018-10-16T04:29:49.347Z,26.03
2018-10-16T04:32:17.857Z,24.50
2018-10-16T04:34:46.387Z,25.33
2018-10-16T04:37:14.886Z,26.83
2018-10-16T04:39:43.423Z,26.40
2018-10-16T04:42:11.974Z,28.80
2018-10-16T04:44:40.496Z,35.77
2018-10-16T04:47:09.013Z,37.57
2018-10-16T04:49:37.536Z,35.07
2018-10-16T04:52:06.108Z,29.17
2018-10-16T04:54:34.660Z,32.40
2018-10-16T04:57:03.180Z,32.00
2018-10-16T04:59:31.716Z,29.97
2018-10-16T05:02:00.248Z,31.73
2018-10-16T05:04:28.774Z,30.53
2018-10-16T05:06:57.283Z,33.47
2018-10-16T05:09:25.821Z,28.63
2018-10-16T05:11:55.524Z,29.47
2018-10-16T05:14:24.018Z,29.50
2018-10-16T05:16:52.671Z,28.97
2018-10-16T05:19:21.395Z,35.57
2018-10-16T05:21:49.927Z,31.73
2018-10-16T05:24:19.103Z,33.00
2018-10-16T05:26:47.625Z,31.87
2018-10-16T05:29:16.180Z,30.60
2018-10-16T05:31:44.789Z,30.73
2018-10-16T05:34:13.334Z,30.77
2018-10-16T05:36:41.836Z,35.03
2018-10-16T05:39:12.075Z,36.23
2018-10-16T05:41:40.720Z,31.20
2018-10-16T05:44:09.672Z,30.77
2018-10-16T05:46:38.355Z,28.00
2018-10-16T05:49:07.195Z,31.03
2018-10-16T05:51:35.737Z,28.67
2018-10-16T05:54:04.308Z,30.43
2018-10-16T05:56:32.821Z,28.50
2018-10-16T05:59:01.359Z,28.13
2018-10-16T06:01:29.861Z,25.23
2018-10-16T06:03:58.387Z,25.07
2018-10-16T06:06:26.897Z,24.47
2018-10-16T06:08:56.227Z,27.13
2018-10-16T06:11:24.724Z,23.10
2018-10-16T06:13:53.329Z,23.83
2018-10-16T06:16:21.982Z,21.27
2018-10-16T06:18:50.501Z,21.57
2018-10-16T06:21:19.453Z,21.83
2018-10-16T06:23:47.968Z,23.43
2018-10-16T06:26:16.491Z,25.70
2018-10-16T06:28:45.006Z,22.43
2018-10-16T06:31:13.527Z,20.73
2018-10-16T06:33:42.111Z,22.10
2018-10-16T06:36:10.591Z,22.70
2018-10-16T06:38:39.104Z,28.47
2018-10-16T06:41:07.756Z,34.00
2018-10-16T06:43:36.166Z,31.97
2018-10-16T06:46:05.128Z,25.13
2018-10-16T06:48:33.857Z,20.53
2018-10-16T06:51:02.199Z,22.00
2018-10-16T06:53:30.700Z,20.27
2018-10-16T06:55:59.496Z,21.30
2018-10-16T06:58:28.364Z,21.37
2018-10-16T07:00:56.960Z,21.97
2018-10-16T07:03:25.454Z,22.23
2018-10-16T07:05:53.981Z,21.77
2018-10-16T07:08:22.472Z,24.83
2018-10-16T07:10:51.041Z,22.73
2018-10-16T07:13:19.537Z,20.83
2018-10-16T07:15:48.061Z,21.97
2018-10-16T07:18:16.637Z,23.37
2018-10-16T07:20:45.165Z,21.93
2018-10-16T07:23:13.738Z,23.73
2018-10-16T07:25:42.258Z,25.93
2018-10-16T07:28:10.767Z,26.83
2018-10-16T07:30:39.309Z,25.30
2018-10-16T07:33:07.814Z,25.83
2018-10-16T07:35:36.362Z,23.73
2018-10-16T07:38:05.226Z,22.63
2018-10-16T07:40:33.586Z,23.40
2018-10-16T07:43:02.102Z,23.03
2018-10-16T07:45:30.619Z,23.43
2018-10-16T07:47:59.164Z,23.40
2018-10-16T07:50:27.743Z,23.37
2018-10-16T07:52:56.275Z,24.57
2018-10-16T07:55:24.877Z,22.03
2018-10-16T08:00:18.869Z,21.60
2018-10-16T08:02:47.424Z,20.17
2018-10-16T08:05:16.469Z,23.00
2018-10-16T08:07:45.046Z,22.40
2018-10-16T08:10:14.459Z,20.40
2018-10-16T08:12:43.634Z,21.73
2018-10-16T08:15:12.700Z,20.80
2018-10-16T08:17:41.699Z,19.97
2018-10-16T08:20:10.250Z,20.70
2018-10-16T08:22:38.969Z,21.60
2018-10-16T08:25:07.705Z,21.73
2018-10-16T08:27:36.617Z,20.90
2018-10-16T08:30:07.133Z,19.33
2018-10-16T08:32:35.721Z,19.50
2018-10-16T08:35:04.348Z,20.07
2018-10-16T08:39:43.389Z,19.93
2018-10-16T08:42:37.026Z,21.33
2018-10-16T08:45:17.510Z,20.17
2018-10-16T08:47:58.377Z,20.80
2018-10-16T08:50:39.655Z,20.90
2018-10-16T08:53:08.153Z,19.87
2018-10-16T08:55:37.169Z,21.27
2018-10-16T08:58:06.349Z,18.37
2018-10-16T09:00:36.025Z,18.93
2018-10-16T09:03:04.670Z,20.00
2018-10-16T09:05:33.201Z,22.53
2018-10-16T09:08:01.832Z,20.40
2018-10-16T09:10:31.037Z,22.20
2018-10-16T09:12:59.979Z,18.13
2018-10-16T09:15:28.516Z,20.73
2018-10-16T09:17:57.075Z,18.57
2018-10-16T09:20:25.632Z,22.83
2018-10-16T09:22:54.164Z,19.20
2018-10-16T09:25:22.683Z,21.27
2018-10-16T09:27:51.216Z,22.30
2018-10-16T09:30:19.715Z,22.27
2018-10-16T09:32:48.266Z,19.73
2018-10-16T09:35:16.777Z,21.90
2018-10-16T09:37:45.384Z,19.73
2018-10-16T09:40:13.829Z,21.37
2018-10-16T09:42:42.370Z,20.37
2018-10-16T09:45:11.663Z,22.37
2018-10-16T09:47:40.289Z,21.87
2018-10-16T09:50:09.960Z,21.60
2018-10-16T09:52:38.540Z,21.10
2018-10-16T09:55:08.569Z,21.77
2018-10-16T09:57:37.380Z,21.57
2018-10-16T10:00:08.879Z,20.97
2018-10-16T10:02:37.411Z,23.27
2018-10-16T10:05:06.082Z,23.37
2018-10-16T10:07:35.184Z,22.10
2018-10-16T10:10:03.697Z,21.83
2018-10-16T10:12:32.215Z,21.63
2018-10-16T10:15:00.810Z,22.63
2018-10-16T10:17:29.842Z,20.93
2018-10-16T10:19:58.336Z,26.57
2018-10-16T10:22:26.864Z,21.73
2018-10-16T10:24:55.377Z,21.90
2018-10-16T10:27:23.912Z,20.60
2018-10-16T10:29:52.456Z,18.27
2018-10-16T10:32:20.972Z,17.63
2018-10-16T10:34:49.468Z,16.63
2018-10-16T10:37:18.014Z,16.53
2018-10-16T10:39:46.552Z,18.23
2018-10-16T10:42:15.148Z,18.07
2018-10-16T10:44:43.644Z,16.60
2018-10-16T10:47:12.181Z,18.10
2018-10-16T10:49:40.677Z,16.17
2018-10-16T10:52:09.287Z,17.77
2018-10-16T10:54:37.803Z,17.03
2018-10-16T10:57:06.984Z,18.63
2018-10-16T10:59:35.433Z,14.17
2018-10-16T11:02:04.643Z,14.73
2018-10-16T11:04:33.187Z,16.50
2018-10-16T11:07:01.735Z,15.50
2018-10-16T11:09:30.277Z,14.10
2018-10-16T11:11:59.094Z,16.90
2018-10-16T11:14:28.420Z,11.95
2018-10-16T11:16:56.928Z,10.82
2018-10-16T11:19:25.484Z,12.50
2018-10-16T11:21:54.035Z,11.73
2018-10-16T11:24:22.601Z,12.82
2018-10-16T11:26:51.335Z,11.20
2018-10-16T11:29:20.042Z,12.90
2018-10-16T11:31:48.564Z,12.20
2018-10-16T11:34:17.106Z,11.75
2018-10-16T11:36:45.736Z,13.03
2018-10-16T11:39:14.355Z,12.60
2018-10-16T11:41:42.834Z,12.05
2018-10-16T11:44:12.545Z,11.40
2018-10-16T11:46:42.031Z,11.20
2018-10-16T11:49:11.517Z,10.45
2018-10-16T11:51:41.862Z,12.23
2018-10-16T11:54:11.270Z,10.85
2018-10-16T11:56:40.667Z,12.13
2018-10-16T11:59:09.992Z,16.90
2018-10-16T12:01:39.545Z,11.75
2018-10-16T12:04:09.120Z,12.20
2018-10-16T12:06:38.459Z,13.30
2018-10-16T12:09:09.968Z,13.80
2018-10-16T12:11:40.637Z,16.17
2018-10-16T12:14:11.039Z,13.48
2018-10-16T12:16:47.348Z,15.60
2018-10-16T12:19:22.547Z,15.53
2018-10-16T12:21:52.959Z,18.07
2018-10-16T12:24:22.173Z,14.13
2018-10-16T12:26:51.334Z,15.53
2018-10-16T12:29:21.598Z,14.90
2018-10-16T12:31:51.572Z,13.60
2018-10-16T12:34:21.813Z,12.03
2018-10-16T12:36:52.102Z,13.45
2018-10-16T12:39:22.129Z,18.05
2018-10-16T12:41:52.688Z,12.93
2018-10-16T12:44:22.428Z,14.75
2018-10-16T12:46:52.400Z,14.63
2018-10-16T12:49:22.827Z,13.00
2018-10-16T12:51:53.379Z,12.78
2018-10-16T12:54:23.633Z,12.15
2018-10-16T12:56:53.896Z,20.23
2018-10-16T12:59:24.009Z,13.43
2018-10-16T13:01:53.798Z,14.13
2018-10-16T13:04:24.134Z,12.78
2018-10-16T13:06:54.405Z,11.33
2018-10-16T13:09:24.541Z,11.40
2018-10-16T13:11:54.603Z,13.70
2018-10-16T13:14:25.000Z,13.30
2018-10-16T13:16:55.522Z,12.15
2018-10-16T13:19:26.049Z,11.73
2018-10-16T13:21:56.324Z,12.55
2018-10-16T13:24:25.925Z,12.50
2018-10-16T13:26:55.882Z,12.93
2018-10-16T13:29:26.257Z,14.25
2018-10-16T13:31:55.869Z,12.25
2018-10-16T13:34:25.607Z,16.73
2018-10-16T13:36:55.494Z,13.62
2018-10-16T13:39:25.100Z,11.38
2018-10-16T13:41:54.623Z,11.85
2018-10-16T13:44:23.803Z,14.65
2018-10-16T13:46:53.046Z,14.53
2018-10-16T13:49:22.854Z,13.30
2018-10-16T13:51:52.720Z,13.05
2018-10-16T13:54:22.277Z,12.30
2018-10-16T13:56:51.537Z,14.05
2018-10-16T13:59:20.934Z,13.45
2018-10-16T14:01:50.228Z,12.58
2018-10-16T14:04:19.007Z,12.10
2018-10-16T14:06:47.587Z,15.18
2018-10-16T14:09:16.148Z,12.68
2018-10-16T14:11:45.770Z,12.40
2018-10-16T14:14:14.540Z,11.53
2018-10-16T14:16:43.262Z,12.93
2018-10-16T14:19:11.726Z,12.75
2018-10-16T14:21:40.419Z,12.47
2018-10-16T14:24:08.938Z,11.25
2018-10-16T14:26:37.509Z,14.28
2018-10-16T14:29:06.357Z,9.48
2018-10-16T14:31:34.885Z,15.85
2018-10-16T14:34:03.555Z,11.48
2018-10-16T14:36:32.083Z,8.98
2018-10-16T14:39:00.582Z,8.40
2018-10-16T14:41:29.136Z,8.80
2018-10-16T14:43:57.654Z,9.58
2018-10-16T14:46:26.500Z,9.93
2018-10-16T14:48:55.046Z,9.55
2018-10-16T14:51:23.750Z,8.73
2018-10-16T14:53:52.349Z,9.55
2018-10-16T14:56:20.866Z,8.30
2018-10-16T14:58:49.365Z,10.88
2018-10-16T15:01:17.922Z,9.13
2018-10-16T15:03:46.541Z,8.90
2018-10-16T15:06:15.044Z,10.40
2018-10-16T15:08:43.595Z,12.60
2018-10-16T15:11:12.187Z,8.43
2018-10-16T15:13:41.056Z,8.43
2018-10-16T15:16:09.917Z,16.67
2018-10-16T15:18:38.819Z,12.37
2018-10-16T15:21:07.804Z,11.53
2018-10-16T15:23:36.331Z,10.95
2018-10-16T15:26:05.627Z,10.45
2018-10-16T15:28:34.151Z,12.15
2018-10-16T15:31:02.704Z,12.03
2018-10-16T15:33:31.260Z,12.53
2018-10-16T15:36:00.156Z,15.23
2018-10-16T15:38:29.060Z,17.57
2018-10-16T15:40:57.606Z,16.23
2018-10-16T15:43:26.134Z,16.57
2018-10-16T15:45:54.699Z,17.33
2018-10-16T15:48:23.234Z,16.23
2018-10-16T15:50:51.844Z,12.90
2018-10-16T15:53:20.330Z,14.73
2018-10-16T15:55:48.934Z,15.33
2018-10-16T15:58:17.593Z,14.43
2018-10-16T16:00:46.045Z,13.03
2018-10-16T16:03:14.580Z,17.90
2018-10-16T16:05:43.088Z,13.97
2018-10-16T16:08:11.688Z,16.40
2018-10-16T16:10:40.134Z,17.87
2018-10-16T16:13:10.209Z,16.47
2018-10-16T16:15:39.165Z,14.93
2018-10-16T16:18:07.815Z,16.87
2018-10-16T16:20:36.320Z,20.43
2018-10-16T16:23:04.953Z,17.33
2018-10-16T16:25:33.548Z,14.13
2018-10-16T16:28:02.143Z,24.90
2018-10-16T16:30:30.608Z,20.83
2018-10-16T16:32:59.236Z,19.90
2018-10-16T16:35:27.761Z,20.57
2018-10-16T16:37:56.344Z,15.60
2018-10-16T16:40:24.832Z,21.27
2018-10-16T16:42:53.380Z,16.03
2018-10-16T16:45:21.872Z,19.53
2018-10-16T16:47:50.412Z,19.83
2018-10-16T16:50:18.916Z,15.73
2018-10-16T16:52:47.445Z,22.57
2018-10-16T16:55:16.580Z,22.13
2018-10-16T16:57:45.163Z,17.93
2018-10-16T17:00:14.680Z,19.13
2018-10-16T17:02:44.597Z,16.47
2018-10-16T17:05:13.813Z,17.40
2018-10-16T17:07:42.923Z,19.80
2018-10-16T17:10:11.684Z,20.77
2018-10-16T17:12:40.891Z,18.80
2018-10-16T17:15:12.096Z,20.67
2018-10-16T17:17:40.624Z,25.00
2018-10-16T17:20:10.236Z,25.53
2018-10-16T17:22:39.251Z,17.23
2018-10-16T17:25:09.717Z,18.60
2018-10-16T17:27:38.216Z,45.33
2018-10-16T17:30:10.198Z,22.23
2018-10-16T17:32:38.945Z,19.43
2018-10-16T17:35:08.471Z,21.47
2018-10-16T17:37:36.996Z,22.03
2018-10-16T17:40:06.854Z,25.47
2018-10-16T17:42:35.381Z,21.23
2018-10-16T17:45:04.014Z,26.53
2018-10-16T17:47:32.540Z,17.67
2018-10-16T17:50:01.103Z,18.37
2018-10-16T17:52:29.628Z,20.77
2018-10-16T17:54:58.151Z,25.63
2018-10-16T17:57:26.729Z,29.87
2018-10-16T17:59:55.287Z,19.30
2018-10-16T18:02:23.817Z,20.90
2018-10-16T18:04:52.371Z,20.47
2018-10-16T18:07:20.906Z,21.80
2018-10-16T18:09:49.431Z,22.13
2018-10-16T18:12:17.998Z,24.37
2018-10-16T18:14:46.517Z,20.87
2018-10-16T18:17:15.008Z,20.90
2018-10-16T18:19:43.557Z,28.03
2018-10-16T18:22:12.060Z,28.23
2018-10-16T18:24:40.658Z,23.53
2018-10-16T18:27:09.172Z,19.90
2018-10-16T18:29:37.746Z,27.03
2018-10-16T18:32:06.792Z,20.47
2018-10-16T18:34:35.327Z,24.47
2018-10-16T18:37:03.860Z,19.93
2018-10-16T18:39:32.448Z,24.53
2018-10-16T18:42:01.118Z,23.20
2018-10-16T18:44:29.688Z,21.70
2018-10-16T18:46:58.197Z,23.30
2018-10-16T18:49:26.771Z,22.40
2018-10-16T18:51:55.337Z,21.63
2018-10-16T18:54:24.898Z,20.13
2018-10-16T18:56:53.461Z,23.37
2018-10-16T18:59:22.023Z,22.90
2018-10-16T19:01:50.701Z,27.60
2018-10-16T19:04:19.240Z,26.80
2018-10-16T19:06:47.828Z,24.63
2018-10-16T19:09:16.428Z,27.47
2018-10-16T19:11:45.058Z,28.03
2018-10-16T19:14:13.596Z,25.07
2018-10-16T19:16:42.144Z,25.27
2018-10-16T19:19:10.641Z,24.13
2018-10-16T19:21:39.304Z,25.70
2018-10-16T19:24:08.261Z,29.07
2018-10-16T19:26:36.831Z,27.17
2018-10-16T19:29:05.529Z,24.93
2018-10-16T19:31:34.091Z,25.83
2018-10-16T19:34:02.617Z,28.23
2018-10-16T19:36:31.288Z,25.70
2018-10-16T19:38:59.853Z,27.63
2018-10-16T19:41:28.446Z,30.60
2018-10-16T19:43:57.018Z,33.10
2018-10-16T19:46:26.501Z,31.37
2018-10-16T19:48:55.058Z,26.70
2018-10-16T19:51:23.573Z,30.67
2018-10-16T19:53:52.128Z,31.27
2018-10-16T19:56:20.631Z,28.27
2018-10-16T19:58:49.155Z,34.30
2018-10-16T20:01:17.697Z,34.80
2018-10-16T20:03:46.204Z,33.60
2018-10-16T20:06:14.743Z,29.43
2018-10-16T20:08:43.349Z,36.20
2018-10-16T20:11:12.867Z,32.93
2018-10-16T20:13:43.310Z,31.43
2018-10-16T20:16:12.470Z,27.27
2018-10-16T20:18:41.218Z,27.80
2018-10-16T20:21:10.398Z,29.57
2018-10-16T20:23:40.183Z,36.47
2018-10-16T20:26:09.907Z,30.27
2018-10-16T20:28:38.421Z,26.90
2018-10-16T20:31:07.023Z,29.70
2018-10-16T20:33:36.287Z,28.23
2018-10-16T20:36:04.992Z,27.97
2018-10-16T20:38:33.519Z,34.07
2018-10-16T20:41:02.078Z,36.40
2018-10-16T20:43:31.259Z,35.90
2018-10-16T20:45:59.979Z,41.73
2018-10-16T20:48:28.533Z,38.17
2018-10-16T20:50:57.064Z,31.53
2018-10-16T20:53:25.627Z,32.70
2018-10-16T20:55:54.196Z,34.17
2018-10-16T20:58:22.791Z,31.63
2018-10-16T21:00:52.144Z,33.10
2018-10-16T21:03:20.888Z,34.87
2018-10-16T21:05:49.642Z,31.30
2018-10-16T21:08:18.046Z,32.77
2018-10-16T21:10:46.578Z,29.13
2018-10-16T21:13:15.162Z,26.53
2018-10-16T21:15:43.698Z,25.83
2018-10-16T21:18:12.533Z,28.27
2018-10-16T21:20:41.045Z,25.63
2018-10-16T21:23:09.655Z,26.57
2018-10-16T21:25:38.156Z,25.23
2018-10-16T21:28:06.861Z,27.43
2018-10-16T21:30:35.383Z,23.30
2018-10-16T21:33:03.992Z,22.40
2018-10-16T21:35:33.203Z,26.63
2018-10-16T21:38:01.741Z,26.07
2018-10-16T21:40:30.241Z,30.00
2018-10-16T21:42:59.070Z,30.47
2018-10-16T21:45:27.646Z,30.63
2018-10-16T21:47:56.203Z,28.67
2018-10-16T21:50:24.721Z,27.30
2018-10-16T21:52:53.334Z,34.33
2018-10-16T21:55:21.848Z,33.83
2018-10-16T21:57:50.358Z,39.77
2018-10-16T22:00:24.365Z,31.43
2018-10-16T22:02:52.886Z,36.17
2018-10-16T22:05:25.207Z,36.73
2018-10-16T22:07:55.984Z,31.33
2018-10-16T22:10:24.858Z,30.13
2018-10-16T22:12:53.387Z,29.97
2018-10-16T22:15:22.109Z,30.90
2018-10-16T22:17:50.926Z,26.53
2018-10-16T22:20:19.552Z,31.27
2018-10-16T22:22:48.189Z,32.53
2018-10-16T22:25:16.972Z,34.93
2018-10-16T22:27:45.438Z,32.33
2018-10-16T22:30:14.051Z,24.23
2018-10-16T22:32:42.590Z,25.83
2018-10-16T22:35:11.824Z,22.50
2018-10-16T22:37:40.329Z,23.70
2018-10-16T22:40:09.875Z,24.40
2018-10-16T22:42:38.405Z,23.90
2018-10-16T22:45:07.944Z,24.23
2018-10-16T22:47:36.548Z,22.40
2018-10-16T22:50:07.623Z,25.93
2018-10-16T22:52:36.151Z,26.10
2018-10-16T22:55:05.535Z,28.10
2018-10-16T22:57:34.056Z,26.87
2018-10-16T23:00:02.590Z,26.93
2018-10-16T23:02:31.126Z,24.67
2018-10-16T23:04:59.673Z,24.27
2018-10-16T23:07:28.189Z,24.10
2018-10-16T23:09:56.696Z,25.60
2018-10-16T23:12:25.233Z,25.17
2018-10-16T23:14:53.865Z,21.90
2018-10-16T23:17:22.395Z,22.77
2018-10-16T23:19:50.926Z,24.17
2018-10-16T23:22:19.425Z,23.40
2018-10-16T23:24:47.972Z,23.20
2018-10-16T23:27:16.522Z,24.37
2018-10-16T23:29:45.061Z,22.37
2018-10-16T23:32:13.562Z,25.03
2018-10-16T23:34:42.058Z,24.00
2018-10-16T23:37:10.679Z,24.63
2018-10-16T23:39:39.236Z,25.80
2018-10-16T23:42:07.752Z,26.73
2018-10-16T23:44:36.282Z,28.53
2018-10-16T23:47:04.845Z,31.73
2018-10-16T23:49:33.375Z,25.13
2018-10-16T23:52:01.873Z,25.90
2018-10-16T23:54:30.424Z,29.57
2018-10-16T23:56:58.946Z,31.10
2018-10-16T23:59:27.555Z,28.77
